sensor_id;sensor_type;location;lat;lon;timestamp;pressure;altitude;pressure_sealevel;temperature
19568;BMP280;9930;49.240;8.548;2023-04-01T00:01:05;99055.44;;;14.98
19568;BMP280;9930;49.240;8.548;2023-04-01T00:03:34;99060.59;;;14.93
19568;BMP280;9930;49.240;8.548;2023-04-01T00:06:03;99038.38;;;14.86
19568;BMP280;9930;49.240;8.548;2023-04-01T00:08:31;99052.91;;;14.87
19568;BMP280;9930;49.240;8.548;2023-04-01T00:10:59;99052.91;;;14.85
19568;BMP280;9930;49.240;8.548;2023-04-01T00:13:28;99052.06;;;14.82
19568;BMP280;9930;49.240;8.548;2023-04-01T00:15:59;99034.09;;;14.73
19568;BMP280;9930;49.240;8.548;2023-04-01T00:18:34;99040.94;;;14.71
19568;BMP280;9930;49.240;8.548;2023-04-01T00:21:05;99048.66;;;14.72
19568;BMP280;9930;49.240;8.548;2023-04-01T00:23:33;99024.69;;;14.66
19568;BMP280;9930;49.240;8.548;2023-04-01T00:26:02;99043.50;;;14.74
19568;BMP280;9930;49.240;8.548;2023-04-01T00:28:31;99030.69;;;14.66
19568;BMP280;9930;49.240;8.548;2023-04-01T00:31:06;99038.38;;;14.66
19568;BMP280;9930;49.240;8.548;2023-04-01T00:33:32;99052.06;;;14.73
19568;BMP280;9930;49.240;8.548;2023-04-01T00:36:11;99051.22;;;14.74
19568;BMP280;9930;49.240;8.548;2023-04-01T00:38:38;99051.22;;;14.72
19568;BMP280;9930;49.240;8.548;2023-04-01T00:41:08;99034.13;;;14.67
19568;BMP280;9930;49.240;8.548;2023-04-01T00:43:34;99052.06;;;14.74
19568;BMP280;9930;49.240;8.548;2023-04-01T00:46:02;99040.94;;;14.68
19568;BMP280;9930;49.240;8.548;2023-04-01T00:48:38;99046.94;;;14.76
19568;BMP280;9930;49.240;8.548;2023-04-01T00:51:14;99050.34;;;14.73
19568;BMP280;9930;49.240;8.548;2023-04-01T00:53:48;99042.66;;;14.78
19568;BMP280;9930;49.240;8.548;2023-04-01T00:56:34;99049.50;;;14.77
19568;BMP280;9930;49.240;8.548;2023-04-01T00:59:06;99022.13;;;14.69
19568;BMP280;9930;49.240;8.548;2023-04-01T01:01:35;99041.81;;;14.76
19568;BMP280;9930;49.240;8.548;2023-04-01T01:04:02;99037.50;;;14.79
19568;BMP280;9930;49.240;8.548;2023-04-01T01:09:14;99020.41;;;14.81
19568;BMP280;9930;49.240;8.548;2023-04-01T01:14:59;99026.41;;;14.73
19568;BMP280;9930;49.240;8.548;2023-04-01T01:35:38;99000.78;;;14.54
19568;BMP280;9930;49.240;8.548;2023-04-01T01:38:15;99012.72;;;14.63
19568;BMP280;9930;49.240;8.548;2023-04-01T01:40:48;99003.31;;;14.61
19568;BMP280;9930;49.240;8.548;2023-04-01T01:43:24;98995.63;;;14.67
19568;BMP280;9930;49.240;8.548;2023-04-01T01:46:02;98997.34;;;14.69
19568;BMP280;9930;49.240;8.548;2023-04-01T01:48:31;98982.81;;;14.64
19568;BMP280;9930;49.240;8.548;2023-04-01T01:50:59;99002.47;;;14.71
19568;BMP280;9930;49.240;8.548;2023-04-01T01:53:28;98981.94;;;14.66
19568;BMP280;9930;49.240;8.548;2023-04-01T01:55:56;98993.03;;;14.73
19568;BMP280;9930;49.240;8.548;2023-04-01T01:58:31;98995.63;;;14.71
19568;BMP280;9930;49.240;8.548;2023-04-01T02:01:05;98984.50;;;14.68
19568;BMP280;9930;49.240;8.548;2023-04-01T02:03:35;98998.19;;;14.73
19568;BMP280;9930;49.240;8.548;2023-04-01T02:06:06;98981.09;;;14.67
19568;BMP280;9930;49.240;8.548;2023-04-01T02:09:12;98997.31;;;14.74
19568;BMP280;9930;49.240;8.548;2023-04-01T02:11:43;98995.59;;;14.76
19568;BMP280;9930;49.240;8.548;2023-04-01T02:14:19;98994.75;;;14.77
19568;BMP280;9930;49.240;8.548;2023-04-01T02:16:54;98975.94;;;14.72
19568;BMP280;9930;49.240;8.548;2023-04-01T02:19:27;98987.06;;;14.71
19568;BMP280;9930;49.240;8.548;2023-04-01T02:22:00;98980.22;;;14.73
19568;BMP280;9930;49.240;8.548;2023-04-01T02:24:30;98993.03;;;14.80
19568;BMP280;9930;49.240;8.548;2023-04-01T02:26:59;98996.44;;;14.81
19568;BMP280;9930;49.240;8.548;2023-04-01T02:29:29;99002.44;;;14.83
19568;BMP280;9930;49.240;8.548;2023-04-01T02:31:55;99003.28;;;14.86
19568;BMP280;9930;49.240;8.548;2023-04-01T02:34:29;98990.47;;;14.83
19568;BMP280;9930;49.240;8.548;2023-04-01T02:36:57;98998.16;;;14.85
19568;BMP280;9930;49.240;8.548;2023-04-01T02:39:26;98998.13;;;14.91
19568;BMP280;9930;49.240;8.548;2023-04-01T02:41:52;98998.13;;;14.91
19568;BMP280;9930;49.240;8.548;2023-04-01T02:44:18;98999.00;;;14.95
19568;BMP280;9930;49.240;8.548;2023-04-01T02:46:44;98988.72;;;14.92
19568;BMP280;9930;49.240;8.548;2023-04-01T02:49:12;99007.53;;;14.94
19568;BMP280;9930;49.240;8.548;2023-04-01T02:51:37;99005.84;;;14.94
19568;BMP280;9930;49.240;8.548;2023-04-01T02:54:05;98993.84;;;14.93
19568;BMP280;9930;49.240;8.548;2023-04-01T02:56:34;98992.16;;;14.87
19568;BMP280;9930;49.240;8.548;2023-04-01T02:59:04;99004.13;;;14.95
19568;BMP280;9930;49.240;8.548;2023-04-01T03:01:32;98999.00;;;14.93
19568;BMP280;9930;49.240;8.548;2023-04-01T03:04:01;98994.72;;;14.92
19568;BMP280;9930;49.240;8.548;2023-04-01T03:06:27;98996.44;;;14.92
19568;BMP280;9930;49.240;8.548;2023-04-01T03:08:58;99002.41;;;14.92
19568;BMP280;9930;49.240;8.548;2023-04-01T03:11:26;99001.56;;;14.92
19568;BMP280;9930;49.240;8.548;2023-04-01T03:13:54;98996.44;;;14.85
19568;BMP280;9930;49.240;8.548;2023-04-01T03:16:20;98991.31;;;14.82
19568;BMP280;9930;49.240;8.548;2023-04-01T03:18:48;98987.91;;;14.79
19568;BMP280;9930;49.240;8.548;2023-04-01T03:21:24;99011.84;;;14.87
19568;BMP280;9930;49.240;8.548;2023-04-01T03:23:50;99004.16;;;14.78
19568;BMP280;9930;49.240;8.548;2023-04-01T03:26:16;99003.31;;;14.77
19568;BMP280;9930;49.240;8.548;2023-04-01T03:28:45;99020.41;;;14.81
19568;BMP280;9930;49.240;8.548;2023-04-01T03:31:13;99017.00;;;14.79
19568;BMP280;9930;49.240;8.548;2023-04-01T03:33:39;99025.53;;;14.80
19568;BMP280;9930;49.240;8.548;2023-04-01T03:36:05;99011.84;;;14.78
19568;BMP280;9930;49.240;8.548;2023-04-01T03:38:34;98999.91;;;14.69
19568;BMP280;9930;49.240;8.548;2023-04-01T03:41:03;99010.16;;;14.71
19568;BMP280;9930;49.240;8.548;2023-04-01T03:43:29;99022.97;;;14.74
19568;BMP280;9930;49.240;8.548;2023-04-01T03:45:55;99007.59;;;14.63
19568;BMP280;9930;49.240;8.548;2023-04-01T03:48:25;99005.03;;;14.66
19568;BMP280;9930;49.240;8.548;2023-04-01T03:50:53;99022.13;;;14.66
19568;BMP280;9930;49.240;8.548;2023-04-01T03:53:22;99014.44;;;14.63
19568;BMP280;9930;49.240;8.548;2023-04-01T03:55:48;98994.78;;;14.52
19568;BMP280;9930;49.240;8.548;2023-04-01T03:58:17;99022.16;;;14.56
19568;BMP280;9930;49.240;8.548;2023-04-01T04:00:43;99013.59;;;14.56
19568;BMP280;9930;49.240;8.548;2023-04-01T04:03:16;99023.84;;;14.53
19568;BMP280;9930;49.240;8.548;2023-04-01T04:05:48;98993.06;;;14.39
19568;BMP280;9930;49.240;8.548;2023-04-01T04:08:15;98997.34;;;14.34
19568;BMP280;9930;49.240;8.548;2023-04-01T04:10:44;99011.88;;;14.37
19568;BMP280;9930;49.240;8.548;2023-04-01T04:13:13;99013.56;;;14.33
19568;BMP280;9930;49.240;8.548;2023-04-01T04:15:43;99006.72;;;14.24
19568;BMP280;9930;49.240;8.548;2023-04-01T04:18:11;99011.84;;;14.24
19568;BMP280;9930;49.240;8.548;2023-04-01T04:20:44;99022.97;;;14.25
19568;BMP280;9930;49.240;8.548;2023-04-01T04:23:12;99025.53;;;14.20
19568;BMP280;9930;49.240;8.548;2023-04-01T04:25:40;99010.13;;;14.11
19568;BMP280;9930;49.240;8.548;2023-04-01T04:28:05;99015.28;;;14.19
19568;BMP280;9930;49.240;8.548;2023-04-01T04:30:36;98999.03;;;14.11
19568;BMP280;9930;49.240;8.548;2023-04-01T04:33:02;99011.84;;;14.17
19568;BMP280;9930;49.240;8.548;2023-04-01T04:35:32;99005.03;;;14.11
19568;BMP280;9930;49.240;8.548;2023-04-01T04:38:00;99004.16;;;14.12
19568;BMP280;9930;49.240;8.548;2023-04-01T04:40:36;98993.91;;;14.08
19568;BMP280;9930;49.240;8.548;2023-04-01T04:43:05;98994.75;;;14.13
19568;BMP280;9930;49.240;8.548;2023-04-01T04:45:31;98997.31;;;14.14
19568;BMP280;9930;49.240;8.548;2023-04-01T04:48:16;98988.78;;;14.09
19568;BMP280;9930;49.240;8.548;2023-04-01T04:50:48;98979.38;;;14.10
19568;BMP280;9930;49.240;8.548;2023-04-01T04:53:16;99004.16;;;14.17
19568;BMP280;9930;49.240;8.548;2023-04-01T04:55:49;98979.38;;;14.14
19568;BMP280;9930;49.240;8.548;2023-04-01T04:58:17;98973.41;;;14.15
19568;BMP280;9930;49.240;8.548;2023-04-01T05:00:43;98987.94;;;14.19
19568;BMP280;9930;49.240;8.548;2023-04-01T05:03:13;98976.81;;;14.19
19568;BMP280;9930;49.240;8.548;2023-04-01T05:05:39;98963.16;;;14.09
19568;BMP280;9930;49.240;8.548;2023-04-01T05:08:06;98963.16;;;14.17
19568;BMP280;9930;49.240;8.548;2023-04-01T05:10:31;98982.81;;;14.29
19568;BMP280;9930;49.240;8.548;2023-04-01T05:12:58;98985.38;;;14.32
19568;BMP280;9930;49.240;8.548;2023-04-01T05:15:24;98993.06;;;14.35
19568;BMP280;9930;49.240;8.548;2023-04-01T05:17:50;98986.22;;;14.35
19568;BMP280;9930;49.240;8.548;2023-04-01T05:20:16;98987.94;;;14.38
19568;BMP280;9930;49.240;8.548;2023-04-01T05:22:42;98978.53;;;14.38
19568;BMP280;9930;49.240;8.548;2023-04-01T05:25:09;98977.66;;;14.41
19568;BMP280;9930;49.240;8.548;2023-04-01T05:27:35;98973.38;;;14.37
19568;BMP280;9930;49.240;8.548;2023-04-01T05:30:04;98968.28;;;14.35
19568;BMP280;9930;49.240;8.548;2023-04-01T05:32:34;98981.13;;;14.44
19568;BMP280;9930;49.240;8.548;2023-04-01T05:35:02;98982.81;;;14.45
19568;BMP280;9930;49.240;8.548;2023-04-01T05:37:37;98976.00;;;14.43
19568;BMP280;9930;49.240;8.548;2023-04-01T05:40:03;98974.28;;;14.45
19568;BMP280;9930;49.240;8.548;2023-04-01T05:42:33;98963.16;;;14.43
19568;BMP280;9930;49.240;8.548;2023-04-01T05:45:00;98965.72;;;14.43
19568;BMP280;9930;49.240;8.548;2023-04-01T05:47:30;98965.72;;;14.46
19568;BMP280;9930;49.240;8.548;2023-04-01T05:49:55;98971.69;;;14.54
19568;BMP280;9930;49.240;8.548;2023-04-01T05:52:24;98978.53;;;14.50
19568;BMP280;9930;49.240;8.548;2023-04-01T05:54:52;98986.22;;;14.56
19568;BMP280;9930;49.240;8.548;2023-04-01T05:57:20;98979.41;;;14.52
19568;BMP280;9930;49.240;8.548;2023-04-01T05:59:47;98991.34;;;14.58
19568;BMP280;9930;49.240;8.548;2023-04-01T06:02:17;98981.09;;;14.56
19568;BMP280;9930;49.240;8.548;2023-04-01T06:04:46;98964.00;;;14.54
19568;BMP280;9930;49.240;8.548;2023-04-01T06:07:17;98978.53;;;14.60
19568;BMP280;9930;49.240;8.548;2023-04-01T06:09:46;98979.38;;;14.62
19568;BMP280;9930;49.240;8.548;2023-04-01T06:12:47;98978.53;;;14.58
19568;BMP280;9930;49.240;8.548;2023-04-01T06:16:00;98974.25;;;14.54
19568;BMP280;9930;49.240;8.548;2023-04-01T06:18:55;98990.50;;;14.65
19568;BMP280;9930;49.240;8.548;2023-04-01T06:22:12;99000.75;;;14.65
19568;BMP280;9930;49.240;8.548;2023-04-01T06:30:41;98996.50;;;14.60
19568;BMP280;9930;49.240;8.548;2023-04-01T06:39:18;99000.78;;;14.56
19568;BMP280;9930;49.240;8.548;2023-04-01T06:50:56;99002.47;;;14.48
19568;BMP280;9930;49.240;8.548;2023-04-01T06:54:09;98994.78;;;14.43
19568;BMP280;9930;49.240;8.548;2023-04-01T06:56:41;98994.78;;;14.45
19568;BMP280;9930;49.240;8.548;2023-04-01T06:59:18;99001.63;;;14.44
19568;BMP280;9930;49.240;8.548;2023-04-01T07:04:44;98996.47;;;14.40
19568;BMP280;9930;49.240;8.548;2023-04-01T07:07:34;98995.66;;;14.42
19568;BMP280;9930;49.240;8.548;2023-04-01T07:10:10;98993.06;;;14.39
19568;BMP280;9930;49.240;8.548;2023-04-01T07:12:46;98987.94;;;14.41
19568;BMP280;9930;49.240;8.548;2023-04-01T07:15:32;98975.97;;;14.35
19568;BMP280;9930;49.240;8.548;2023-04-01T07:18:21;98963.13;;;14.35
19568;BMP280;9930;49.240;8.548;2023-04-01T07:20:49;98977.66;;;14.38
19568;BMP280;9930;49.240;8.548;2023-04-01T07:23:26;98992.22;;;14.49
19568;BMP280;9930;49.240;8.548;2023-04-01T07:25:59;98989.66;;;14.45
19568;BMP280;9930;49.240;8.548;2023-04-01T07:28:31;98989.66;;;14.48
19568;BMP280;9930;49.240;8.548;2023-04-01T07:31:39;98979.41;;;14.42
19568;BMP280;9930;49.240;8.548;2023-04-01T07:37:47;99000.78;;;14.53
19568;BMP280;9930;49.240;8.548;2023-04-01T07:40:37;98987.94;;;14.47
19568;BMP280;9930;49.240;8.548;2023-04-01T07:49:09;98996.47;;;14.67
19568;BMP280;9930;49.240;8.548;2023-04-01T07:57:39;98995.63;;;14.68
19568;BMP280;9930;49.240;8.548;2023-04-01T08:00:27;98997.31;;;14.75
19568;BMP280;9930;49.240;8.548;2023-04-01T08:06:20;99011.84;;;14.90
19568;BMP280;9930;49.240;8.548;2023-04-01T08:11:41;99007.53;;;14.95
19568;BMP280;9930;49.240;8.548;2023-04-01T08:17:51;99012.66;;;15.01
19568;BMP280;9930;49.240;8.548;2023-04-01T08:26:39;99006.59;;;15.22
19568;BMP280;9930;49.240;8.548;2023-04-01T08:29:15;99011.69;;;15.33
19568;BMP280;9930;49.240;8.548;2023-04-01T08:32:05;99012.53;;;15.41
19568;BMP280;9930;49.240;8.548;2023-04-01T08:34:41;99000.50;;;15.46
19568;BMP280;9930;49.240;8.548;2023-04-01T08:37:24;98997.09;;;15.44
19568;BMP280;9930;49.240;8.548;2023-04-01T08:40:36;99014.19;;;15.51
19568;BMP280;9930;49.240;8.548;2023-04-01T08:49:49;99005.66;;;15.43
19568;BMP280;9930;49.240;8.548;2023-04-01T08:52:39;99005.69;;;15.40
19568;BMP280;9930;49.240;8.548;2023-04-01T09:00:53;99010.75;;;15.50
19568;BMP280;9930;49.240;8.548;2023-04-01T09:04:04;99024.47;;;15.59
19568;BMP280;9930;49.240;8.548;2023-04-01T09:10:16;99007.31;;;15.59
19568;BMP280;9930;49.240;8.548;2023-04-01T09:19:14;99032.09;;;15.66
19568;BMP280;9930;49.240;8.548;2023-04-01T09:25:22;99020.94;;;15.70
19568;BMP280;9930;49.240;8.548;2023-04-01T09:31:29;99036.28;;;15.82
19568;BMP280;9930;49.240;8.548;2023-04-01T09:34:26;99032.00;;;15.86
19568;BMP280;9930;49.240;8.548;2023-04-01T09:37:20;99006.34;;;15.77
19568;BMP280;9930;49.240;8.548;2023-04-01T09:40:41;99025.97;;;15.87
19568;BMP280;9930;49.240;8.548;2023-04-01T09:43:36;99038.81;;;15.92
19568;BMP280;9930;49.240;8.548;2023-04-01T10:01:44;99043.88;;;16.04
19568;BMP280;9930;49.240;8.548;2023-04-01T10:11:22;99049.84;;;16.09
19568;BMP280;9930;49.240;8.548;2023-04-01T10:14:37;99031.84;;;16.07
19568;BMP280;9930;49.240;8.548;2023-04-01T11:01:11;99056.63;;;16.20
19568;BMP280;9930;49.240;8.548;2023-04-01T11:10:06;99072.03;;;16.25
19568;BMP280;9930;49.240;8.548;2023-04-01T11:15:31;99072.88;;;16.27
19568;BMP280;9930;49.240;8.548;2023-04-01T11:18:43;99060.09;;;16.16
19568;BMP280;9930;49.240;8.548;2023-04-01T11:21:54;99084.03;;;16.26
19568;BMP280;9930;49.240;8.548;2023-04-01T11:24:37;99074.59;;;16.27
19568;BMP280;9930;49.240;8.548;2023-04-01T11:35:39;99084.72;;;16.49
19568;BMP280;9930;49.240;8.548;2023-04-01T11:44:55;99091.44;;;16.70
19568;BMP280;9930;49.240;8.548;2023-04-01T11:51:03;99106.91;;;16.69
19568;BMP280;9930;49.240;8.548;2023-04-01T11:53:46;99090.63;;;16.64
19568;BMP280;9930;49.240;8.548;2023-04-01T12:02:40;99109.53;;;16.57
19568;BMP280;9930;49.240;8.548;2023-04-01T12:11:17;99114.59;;;16.72
19568;BMP280;9930;49.240;8.548;2023-04-01T12:14:08;99106.84;;;16.76
19568;BMP280;9930;49.240;8.548;2023-04-01T12:19:50;99114.50;;;16.84
19568;BMP280;9930;49.240;8.548;2023-04-01T12:23:23;99117.03;;;16.90
19568;BMP280;9930;49.240;8.548;2023-04-01T12:45:33;99120.34;;;17.03
19568;BMP280;9930;49.240;8.548;2023-04-01T12:55:08;99116.78;;;17.17
19568;BMP280;9930;49.240;8.548;2023-04-01T12:57:25;99131.34;;;17.20
19568;BMP280;9930;49.240;8.548;2023-04-01T13:00:29;99130.50;;;17.20
19568;BMP280;9930;49.240;8.548;2023-04-01T13:18:07;99132.94;;;17.32
19568;BMP280;9930;49.240;8.548;2023-04-01T13:20:57;99145.81;;;17.33
19568;BMP280;9930;49.240;8.548;2023-04-01T13:23:42;99143.97;;;17.44
19568;BMP280;9930;49.240;8.548;2023-04-01T13:26:39;99143.91;;;17.51
19568;BMP280;9930;49.240;8.548;2023-04-01T13:43:31;99164.53;;;17.51
19568;BMP280;9930;49.240;8.548;2023-04-01T13:46:07;99162.03;;;17.43
19568;BMP280;9930;49.240;8.548;2023-04-01T13:48:56;99164.69;;;17.37
19568;BMP280;9930;49.240;8.548;2023-04-01T13:58:23;99170.84;;;17.19
19568;BMP280;9930;49.240;8.548;2023-04-01T14:01:03;99167.50;;;17.12
19568;BMP280;9930;49.240;8.548;2023-04-01T14:09:49;99170.91;;;17.14
19568;BMP280;9930;49.240;8.548;2023-04-01T14:12:56;99166.69;;;17.04
19568;BMP280;9930;49.240;8.548;2023-04-01T14:15:36;99164.97;;;17.05
19568;BMP280;9930;49.240;8.548;2023-04-01T14:18:37;99182.13;;;17.09
19568;BMP280;9930;49.240;8.548;2023-04-01T14:21:21;99188.94;;;17.13
19568;BMP280;9930;49.240;8.548;2023-04-01T14:47:58;99185.66;;;16.96
19568;BMP280;9930;49.240;8.548;2023-04-01T14:50:40;99201.88;;;17.07
19568;BMP280;9930;49.240;8.548;2023-04-01T14:58:23;99202.81;;;16.97
19568;BMP280;9930;49.240;8.548;2023-04-01T15:01:08;99199.41;;;16.93
19568;BMP280;9930;49.240;8.548;2023-04-01T15:08:01;99215.78;;;16.84
19568;BMP280;9930;49.240;8.548;2023-04-01T15:11:15;99214.09;;;16.82
19568;BMP280;9930;49.240;8.548;2023-04-01T15:20:56;99215.81;;;16.80
19568;BMP280;9930;49.240;8.548;2023-04-01T15:23:46;99200.41;;;16.75
19568;BMP280;9930;49.240;8.548;2023-04-01T15:35:26;99224.31;;;16.91
19568;BMP280;9930;49.240;8.548;2023-04-01T15:38:05;99229.47;;;16.91
19568;BMP280;9930;49.240;8.548;2023-04-01T15:44:01;99215.81;;;16.80
19568;BMP280;9930;49.240;8.548;2023-04-01T15:46:54;99221.78;;;16.85
19568;BMP280;9930;49.240;8.548;2023-04-01T15:49:36;99212.41;;;16.76
19568;BMP280;9930;49.240;8.548;2023-04-01T16:18:17;99250.22;;;16.64
19568;BMP280;9930;49.240;8.548;2023-04-01T16:21:05;99241.69;;;16.54
19568;BMP280;9930;49.240;8.548;2023-04-01T16:23:47;99260.53;;;16.58
19568;BMP280;9930;49.240;8.548;2023-04-01T16:26:43;99269.97;;;16.56
19568;BMP280;9930;49.240;8.548;2023-04-01T16:35:30;99257.16;;;16.46
19568;BMP280;9930;49.240;8.548;2023-04-01T16:38:20;99255.47;;;16.41
19568;BMP280;9930;49.240;8.548;2023-04-01T16:44:20;99273.47;;;16.44
19568;BMP280;9930;49.240;8.548;2023-04-01T16:46:55;99269.19;;;16.44
19568;BMP280;9930;49.240;8.548;2023-04-01T16:49:58;99266.63;;;16.37
19568;BMP280;9930;49.240;8.548;2023-04-01T16:55:20;99264.06;;;16.37
19568;BMP280;9930;49.240;8.548;2023-04-01T16:57:59;99270.06;;;16.37
19568;BMP280;9930;49.240;8.548;2023-04-01T17:00:48;99288.91;;;16.44
19568;BMP280;9930;49.240;8.548;2023-04-01T17:03:28;99270.94;;;16.35
19568;BMP280;9930;49.240;8.548;2023-04-01T17:11:13;99298.38;;;16.37
19568;BMP280;9930;49.240;8.548;2023-04-01T17:14:07;99304.38;;;16.36
19568;BMP280;9930;49.240;8.548;2023-04-01T17:20:35;99306.97;;;16.30
19568;BMP280;9930;49.240;8.548;2023-04-01T17:23:11;99312.13;;;16.30
19568;BMP280;9930;49.240;8.548;2023-04-01T17:43:40;99331.91;;;16.01
19568;BMP280;9930;49.240;8.548;2023-04-01T17:52:29;99356.75;;;16.05
19568;BMP280;9930;49.240;8.548;2023-04-01T18:07:09;99359.34;;;15.91
19568;BMP280;9930;49.240;8.548;2023-04-01T18:19:34;99363.63;;;15.83
19568;BMP280;9930;49.240;8.548;2023-04-01T18:31:34;99381.63;;;15.69
19568;BMP280;9930;49.240;8.548;2023-04-01T18:37:26;99367.06;;;15.61
19568;BMP280;9930;49.240;8.548;2023-04-01T18:40:10;99400.47;;;15.74
19568;BMP280;9930;49.240;8.548;2023-04-01T18:45:27;99404.75;;;15.74
19568;BMP280;9930;49.240;8.548;2023-04-01T18:48:15;99414.19;;;15.75
19568;BMP280;9930;49.240;8.548;2023-04-01T18:50:53;99404.75;;;15.66
19568;BMP280;9930;49.240;8.548;2023-04-01T18:53:44;99412.47;;;15.65
19568;BMP280;9930;49.240;8.548;2023-04-01T18:56:28;99421.03;;;15.62
19568;BMP280;9930;49.240;8.548;2023-04-01T18:59:28;99416.78;;;15.60
19568;BMP280;9930;49.240;8.548;2023-04-01T19:02:28;99428.75;;;15.64
19568;BMP280;9930;49.240;8.548;2023-04-01T19:05:36;99435.59;;;15.62
19568;BMP280;9930;49.240;8.548;2023-04-01T19:08:32;99427.88;;;15.54
19568;BMP280;9930;49.240;8.548;2023-04-01T19:17:15;99450.16;;;15.57
19568;BMP280;9930;49.240;8.548;2023-04-01T19:22:49;99444.16;;;15.53
19568;BMP280;9930;49.240;8.548;2023-04-01T19:25:42;99455.31;;;15.58
19568;BMP280;9930;49.240;8.548;2023-04-01T19:28:47;99456.19;;;15.57
19568;BMP280;9930;49.240;8.548;2023-04-01T19:34:49;99461.28;;;15.52
19568;BMP280;9930;49.240;8.548;2023-04-01T19:37:51;99467.28;;;15.53
19568;BMP280;9930;49.240;8.548;2023-04-01T19:40:35;99469.00;;;15.55
19568;BMP280;9930;49.240;8.548;2023-04-01T19:46:16;99468.13;;;15.57
19568;BMP280;9930;49.240;8.548;2023-04-01T19:49:18;99455.25;;;15.46
19568;BMP280;9930;49.240;8.548;2023-04-01T20:00:43;99481.84;;;15.52
19568;BMP280;9930;49.240;8.548;2023-04-01T20:03:48;99474.09;;;15.43
19568;BMP280;9930;49.240;8.548;2023-04-01T20:06:38;99490.41;;;15.50
19568;BMP280;9930;49.240;8.548;2023-04-01T20:15:37;99498.97;;;15.49
19568;BMP280;9930;49.240;8.548;2023-04-01T20:18:54;99505.81;;;15.45
19568;BMP280;9930;49.240;8.548;2023-04-01T20:21:41;99504.06;;;15.37
19568;BMP280;9930;49.240;8.548;2023-04-01T20:26:48;99516.91;;;15.41
19568;BMP280;9930;49.240;8.548;2023-04-01T20:35:47;99514.31;;;15.29
19568;BMP280;9930;49.240;8.548;2023-04-01T20:47:45;99538.25;;;15.23
19568;BMP280;9930;49.240;8.548;2023-04-01T20:50:31;99529.66;;;15.17
19568;BMP280;9930;49.240;8.548;2023-04-01T21:02:32;99549.31;;;15.13
19568;BMP280;9930;49.240;8.548;2023-04-01T21:07:46;99551.91;;;15.15
19568;BMP280;9930;49.240;8.548;2023-04-01T21:13:40;99551.88;;;15.12
19568;BMP280;9930;49.240;8.548;2023-04-01T21:25:27;99565.56;;;15.09
19568;BMP280;9930;49.240;8.548;2023-04-01T21:31:38;99574.13;;;15.08
19568;BMP280;9930;49.240;8.548;2023-04-01T21:34:31;99574.13;;;15.08
19568;BMP280;9930;49.240;8.548;2023-04-01T21:37:30;99574.97;;;15.07
19568;BMP280;9930;49.240;8.548;2023-04-01T21:49:06;99581.78;;;15.04
19568;BMP280;9930;49.240;8.548;2023-04-01T21:55:06;99586.91;;;15.01
19568;BMP280;9930;49.240;8.548;2023-04-01T22:00:38;99577.44;;;14.92
19568;BMP280;9930;49.240;8.548;2023-04-01T22:16:58;99596.22;;;14.86
19568;BMP280;9930;49.240;8.548;2023-04-01T22:19:59;99591.94;;;14.84
19568;BMP280;9930;49.240;8.548;2023-04-01T22:23:01;99601.41;;;14.91
19568;BMP280;9930;49.240;8.548;2023-04-01T22:25:57;99595.34;;;14.83
19568;BMP280;9930;49.240;8.548;2023-04-01T22:28:55;99609.09;;;14.91
19568;BMP280;9930;49.240;8.548;2023-04-01T22:31:40;99610.81;;;14.92
19568;BMP280;9930;49.240;8.548;2023-04-01T22:34:16;99611.66;;;14.89
19568;BMP280;9930;49.240;8.548;2023-04-01T22:36:59;99616.78;;;14.88
19568;BMP280;9930;49.240;8.548;2023-04-01T22:42:39;99627.88;;;14.84
19568;BMP280;9930;49.240;8.548;2023-04-01T22:48:28;99615.81;;;14.72
19568;BMP280;9930;49.240;8.548;2023-04-01T22:56:53;99628.63;;;14.71
19568;BMP280;9930;49.240;8.548;2023-04-01T23:02:30;99640.59;;;14.72
19568;BMP280;9930;49.240;8.548;2023-04-01T23:05:02;99643.19;;;14.73
19568;BMP280;9930;49.240;8.548;2023-04-01T23:08:24;99637.16;;;14.68
19568;BMP280;9930;49.240;8.548;2023-04-01T23:10:58;99646.59;;;14.71
19568;BMP280;9930;49.240;8.548;2023-04-01T23:13:36;99642.31;;;14.70
19568;BMP280;9930;49.240;8.548;2023-04-01T23:16:05;99629.41;;;14.64
19568;BMP280;9930;49.240;8.548;2023-04-01T23:18:52;99640.59;;;14.69
19568;BMP280;9930;49.240;8.548;2023-04-01T23:24:24;99648.28;;;14.67
19568;BMP280;9930;49.240;8.548;2023-04-01T23:27:35;99649.88;;;14.57
19568;BMP280;9930;49.240;8.548;2023-04-01T23:30:04;99664.50;;;14.65
19568;BMP280;9930;49.240;8.548;2023-04-01T23:32:30;99650.75;;;14.60
19568;BMP280;9930;49.240;8.548;2023-04-01T23:34:59;99650.75;;;14.60
19568;BMP280;9930;49.240;8.548;2023-04-01T23:37:27;99655.88;;;14.58
19568;BMP280;9930;49.240;8.548;2023-04-01T23:39:58;99670.50;;;14.65
19568;BMP280;9930;49.240;8.548;2023-04-01T23:42:32;99676.47;;;14.64
19568;BMP280;9930;49.240;8.548;2023-04-01T23:45:12;99684.16;;;14.64
19568;BMP280;9930;49.240;8.548;2023-04-01T23:47:42;99672.97;;;14.56
19568;BMP280;9930;49.240;8.548;2023-04-01T23:50:18;99691.88;;;14.64
19568;BMP280;9930;49.240;8.548;2023-04-01T23:53:02;99664.34;;;14.49
19568;BMP280;9930;49.240;8.548;2023-04-01T23:55:33;99691.00;;;14.62
19568;BMP280;9930;49.240;8.548;2023-04-01T23:58:25;99697.84;;;14.62
